sensor_id;sensor_type;location;lat;lon;timestamp;P1;durP1;ratioP1;P2;durP2;ratioP2
7142;SDS011;3613;48.902;9.204;2023-12-20T00:00:20;15.30;;;9.60;;
7142;SDS011;3613;48.902;9.204;2023-12-20T00:02:48;16.50;;;9.90;;
7142;SDS011;3613;48.902;9.204;2023-12-20T00:05:14;14.57;;;9.57;;
7142;SDS011;3613;48.902;9.204;2023-12-20T00:07:39;12.23;;;8.73;;
7142;SDS011;3613;48.902;9.204;2023-12-20T00:10:09;13.73;;;10.37;;
7142;SDS011;3613;48.902;9.204;2023-12-20T00:12:40;23.13;;;13.13;;
7142;SDS011;3613;48.902;9.204;2023-12-20T00:15:08;16.40;;;10.63;;
7142;SDS011;3613;48.902;9.204;2023-12-20T00:17:34;18.00;;;10.50;;
7142;SDS011;3613;48.902;9.204;2023-12-20T00:20:02;12.17;;;8.07;;
7142;SDS011;3613;48.902;9.204;2023-12-20T00:22:28;14.20;;;9.43;;
7142;SDS011;3613;48.902;9.204;2023-12-20T00:24:53;11.57;;;7.50;;
7142;SDS011;3613;48.902;9.204;2023-12-20T00:27:19;12.67;;;8.37;;
7142;SDS011;3613;48.902;9.204;2023-12-20T00:29:44;15.17;;;10.67;;
7142;SDS011;3613;48.902;9.204;2023-12-20T00:32:13;20.63;;;11.40;;
7142;SDS011;3613;48.902;9.204;2023-12-20T00:34:38;12.10;;;8.77;;
7142;SDS011;3613;48.902;9.204;2023-12-20T00:37:06;16.97;;;10.60;;
7142;SDS011;3613;48.902;9.204;2023-12-20T00:39:35;14.17;;;9.43;;
7142;SDS011;3613;48.902;9.204;2023-12-20T00:42:03;17.47;;;11.27;;
7142;SDS011;3613;48.902;9.204;2023-12-20T00:44:28;20.80;;;11.63;;
7142;SDS011;3613;48.902;9.204;2023-12-20T00:46:54;27.27;;;15.37;;
7142;SDS011;3613;48.902;9.204;2023-12-20T00:49:22;25.83;;;14.10;;
7142;SDS011;3613;48.902;9.204;2023-12-20T00:51:50;23.87;;;13.57;;
7142;SDS011;3613;48.902;9.204;2023-12-20T00:54:20;20.80;;;12.43;;
7142;SDS011;3613;48.902;9.204;2023-12-20T00:56:45;17.17;;;11.23;;
7142;SDS011;3613;48.902;9.204;2023-12-20T00:59:11;19.17;;;12.87;;
7142;SDS011;3613;48.902;9.204;2023-12-20T01:01:39;16.37;;;11.13;;
7142;SDS011;3613;48.902;9.204;2023-12-20T01:04:07;15.73;;;9.93;;
7142;SDS011;3613;48.902;9.204;2023-12-20T01:06:33;16.33;;;9.93;;
7142;SDS011;3613;48.902;9.204;2023-12-20T01:08:58;17.70;;;11.37;;
7142;SDS011;3613;48.902;9.204;2023-12-20T01:11:24;20.67;;;11.73;;
7142;SDS011;3613;48.902;9.204;2023-12-20T01:13:50;23.93;;;13.67;;
7142;SDS011;3613;48.902;9.204;2023-12-20T01:16:15;19.63;;;10.97;;
7142;SDS011;3613;48.902;9.204;2023-12-20T01:18:43;17.37;;;11.37;;
7142;SDS011;3613;48.902;9.204;2023-12-20T01:21:09;16.13;;;10.10;;
7142;SDS011;3613;48.902;9.204;2023-12-20T01:23:37;25.13;;;15.53;;
7142;SDS011;3613;48.902;9.204;2023-12-20T01:26:02;25.37;;;14.27;;
7142;SDS011;3613;48.902;9.204;2023-12-20T01:28:33;23.63;;;14.97;;
7142;SDS011;3613;48.902;9.204;2023-12-20T01:30:58;21.63;;;12.23;;
7142;SDS011;3613;48.902;9.204;2023-12-20T01:33:24;25.90;;;14.47;;
7142;SDS011;3613;48.902;9.204;2023-12-20T01:35:51;25.93;;;14.23;;
7142;SDS011;3613;48.902;9.204;2023-12-20T01:38:17;19.03;;;11.73;;
7142;SDS011;3613;48.902;9.204;2023-12-20T01:40:43;22.67;;;13.10;;
7142;SDS011;3613;48.902;9.204;2023-12-20T01:43:09;22.27;;;12.27;;
7142;SDS011;3613;48.902;9.204;2023-12-20T01:45:37;19.10;;;11.77;;
7142;SDS011;3613;48.902;9.204;2023-12-20T01:48:03;22.20;;;12.20;;
7142;SDS011;3613;48.902;9.204;2023-12-20T01:50:32;18.87;;;11.63;;
7142;SDS011;3613;48.902;9.204;2023-12-20T01:53:01;16.77;;;10.43;;
7142;SDS011;3613;48.902;9.204;2023-12-20T01:55:29;23.10;;;12.63;;
7142;SDS011;3613;48.902;9.204;2023-12-20T01:57:58;21.53;;;12.73;;
7142;SDS011;3613;48.902;9.204;2023-12-20T02:00:24;25.03;;;13.23;;
7142;SDS011;3613;48.902;9.204;2023-12-20T02:02:53;28.73;;;15.43;;
7142;SDS011;3613;48.902;9.204;2023-12-20T02:05:24;25.53;;;14.57;;
7142;SDS011;3613;48.902;9.204;2023-12-20T02:07:50;32.87;;;17.37;;
7142;SDS011;3613;48.902;9.204;2023-12-20T02:10:16;25.10;;;15.07;;
7142;SDS011;3613;48.902;9.204;2023-12-20T02:12:44;21.87;;;12.60;;
7142;SDS011;3613;48.902;9.204;2023-12-20T02:15:10;29.77;;;16.77;;
7142;SDS011;3613;48.902;9.204;2023-12-20T02:17:36;28.60;;;15.07;;
7142;SDS011;3613;48.902;9.204;2023-12-20T02:20:03;20.40;;;11.47;;
7142;SDS011;3613;48.902;9.204;2023-12-20T02:22:30;22.37;;;12.20;;
7142;SDS011;3613;48.902;9.204;2023-12-20T02:24:56;18.80;;;11.83;;
7142;SDS011;3613;48.902;9.204;2023-12-20T02:27:26;14.97;;;10.13;;
7142;SDS011;3613;48.902;9.204;2023-12-20T02:29:53;13.47;;;7.27;;
7142;SDS011;3613;48.902;9.204;2023-12-20T02:32:19;6.80;;;5.10;;
7142;SDS011;3613;48.902;9.204;2023-12-20T02:34:46;9.27;;;4.60;;
7142;SDS011;3613;48.902;9.204;2023-12-20T02:37:15;5.10;;;4.10;;
7142;SDS011;3613;48.902;9.204;2023-12-20T02:39:41;3.53;;;2.80;;
7142;SDS011;3613;48.902;9.204;2023-12-20T02:42:09;5.67;;;2.83;;
7142;SDS011;3613;48.902;9.204;2023-12-20T02:44:39;3.70;;;2.40;;
7142;SDS011;3613;48.902;9.204;2023-12-20T02:47:07;2.97;;;2.10;;
7142;SDS011;3613;48.902;9.204;2023-12-20T02:49:35;2.27;;;2.07;;
7142;SDS011;3613;48.902;9.204;2023-12-20T02:52:00;2.00;;;1.80;;
7142;SDS011;3613;48.902;9.204;2023-12-20T02:54:26;2.23;;;1.77;;
7142;SDS011;3613;48.902;9.204;2023-12-20T02:56:51;2.17;;;1.97;;
7142;SDS011;3613;48.902;9.204;2023-12-20T02:59:17;1.50;;;1.40;;
7142;SDS011;3613;48.902;9.204;2023-12-20T03:01:46;3.77;;;1.30;;
7142;SDS011;3613;48.902;9.204;2023-12-20T03:04:14;1.90;;;1.53;;
7142;SDS011;3613;48.902;9.204;2023-12-20T03:06:40;1.00;;;1.00;;
7142;SDS011;3613;48.902;9.204;2023-12-20T03:09:05;1.17;;;1.07;;
7142;SDS011;3613;48.902;9.204;2023-12-20T03:11:31;1.20;;;1.17;;
7142;SDS011;3613;48.902;9.204;2023-12-20T03:13:59;1.80;;;1.10;;
7142;SDS011;3613;48.902;9.204;2023-12-20T03:16:27;1.50;;;1.40;;
7142;SDS011;3613;48.902;9.204;2023-12-20T03:18:56;1.20;;;1.10;;
7142;SDS011;3613;48.902;9.204;2023-12-20T03:21:24;1.30;;;1.20;;
7142;SDS011;3613;48.902;9.204;2023-12-20T03:23:49;1.30;;;1.20;;
7142;SDS011;3613;48.902;9.204;2023-12-20T03:26:19;2.10;;;1.43;;
7142;SDS011;3613;48.902;9.204;2023-12-20T03:28:45;1.87;;;1.30;;
7142;SDS011;3613;48.902;9.204;2023-12-20T03:31:14;1.63;;;1.37;;
7142;SDS011;3613;48.902;9.204;2023-12-20T03:33:39;1.33;;;1.23;;
7142;SDS011;3613;48.902;9.204;2023-12-20T03:36:09;2.00;;;1.80;;
7142;SDS011;3613;48.902;9.204;2023-12-20T03:38:35;1.70;;;1.30;;
7142;SDS011;3613;48.902;9.204;2023-12-20T03:41:00;3.00;;;1.50;;
7142;SDS011;3613;48.902;9.204;2023-12-20T03:43:26;1.40;;;1.27;;
7142;SDS011;3613;48.902;9.204;2023-12-20T03:45:51;1.30;;;1.20;;
7142;SDS011;3613;48.902;9.204;2023-12-20T03:48:17;1.73;;;1.53;;
7142;SDS011;3613;48.902;9.204;2023-12-20T03:50:45;1.40;;;1.30;;
7142;SDS011;3613;48.902;9.204;2023-12-20T03:53:13;1.37;;;1.27;;
7142;SDS011;3613;48.902;9.204;2023-12-20T03:55:39;1.67;;;1.40;;
7142;SDS011;3613;48.902;9.204;2023-12-20T03:58:06;2.07;;;1.10;;
7142;SDS011;3613;48.902;9.204;2023-12-20T04:00:32;2.07;;;1.60;;
7142;SDS011;3613;48.902;9.204;2023-12-20T04:03:00;1.87;;;1.30;;
7142;SDS011;3613;48.902;9.204;2023-12-20T04:05:28;1.43;;;1.33;;
7142;SDS011;3613;48.902;9.204;2023-12-20T04:07:56;1.90;;;1.47;;
7142;SDS011;3613;48.902;9.204;2023-12-20T04:10:25;1.27;;;1.17;;
7142;SDS011;3613;48.902;9.204;2023-12-20T04:12:50;2.60;;;1.30;;
7142;SDS011;3613;48.902;9.204;2023-12-20T04:15:16;1.30;;;1.20;;
7142;SDS011;3613;48.902;9.204;2023-12-20T04:17:41;2.53;;;1.30;;
7142;SDS011;3613;48.902;9.204;2023-12-20T04:20:07;1.57;;;1.27;;
7142;SDS011;3613;48.902;9.204;2023-12-20T04:22:33;1.37;;;1.27;;
7142;SDS011;3613;48.902;9.204;2023-12-20T04:25:01;1.40;;;1.20;;
7142;SDS011;3613;48.902;9.204;2023-12-20T04:27:27;1.60;;;1.43;;
7142;SDS011;3613;48.902;9.204;2023-12-20T04:29:55;1.50;;;1.40;;
7142;SDS011;3613;48.902;9.204;2023-12-20T04:32:20;2.20;;;1.70;;
7142;SDS011;3613;48.902;9.204;2023-12-20T04:34:46;1.33;;;1.23;;
7142;SDS011;3613;48.902;9.204;2023-12-20T04:37:11;1.50;;;1.40;;
7142;SDS011;3613;48.902;9.204;2023-12-20T04:39:37;1.87;;;1.57;;
7142;SDS011;3613;48.902;9.204;2023-12-20T04:42:05;1.47;;;1.37;;
7142;SDS011;3613;48.902;9.204;2023-12-20T04:44:31;2.00;;;1.40;;
7142;SDS011;3613;48.902;9.204;2023-12-20T04:46:59;3.13;;;1.60;;
7142;SDS011;3613;48.902;9.204;2023-12-20T04:49:25;1.70;;;1.40;;
7142;SDS011;3613;48.902;9.204;2023-12-20T04:51:50;1.93;;;1.53;;
7142;SDS011;3613;48.902;9.204;2023-12-20T04:54:16;1.47;;;1.37;;
7142;SDS011;3613;48.902;9.204;2023-12-20T04:56:44;1.93;;;1.63;;
7142;SDS011;3613;48.902;9.204;2023-12-20T04:59:12;1.73;;;1.50;;
7142;SDS011;3613;48.902;9.204;2023-12-20T05:01:40;2.40;;;1.30;;
7142;SDS011;3613;48.902;9.204;2023-12-20T05:04:10;3.67;;;1.70;;
7142;SDS011;3613;48.902;9.204;2023-12-20T05:06:35;1.93;;;1.60;;
7142;SDS011;3613;48.902;9.204;2023-12-20T05:09:01;1.83;;;1.60;;
7142;SDS011;3613;48.902;9.204;2023-12-20T05:11:31;2.00;;;1.57;;
7142;SDS011;3613;48.902;9.204;2023-12-20T05:13:57;1.87;;;1.70;;
7142;SDS011;3613;48.902;9.204;2023-12-20T05:16:27;1.70;;;1.60;;
7142;SDS011;3613;48.902;9.204;2023-12-20T05:18:55;1.77;;;1.67;;
7142;SDS011;3613;48.902;9.204;2023-12-20T05:21:25;2.50;;;1.90;;
7142;SDS011;3613;48.902;9.204;2023-12-20T05:23:53;3.20;;;1.90;;
7142;SDS011;3613;48.902;9.204;2023-12-20T05:26:19;2.10;;;1.77;;
7142;SDS011;3613;48.902;9.204;2023-12-20T05:28:45;2.17;;;1.97;;
7142;SDS011;3613;48.902;9.204;2023-12-20T05:31:10;3.73;;;2.53;;
7142;SDS011;3613;48.902;9.204;2023-12-20T05:33:36;2.37;;;2.17;;
7142;SDS011;3613;48.902;9.204;2023-12-20T05:36:02;2.47;;;2.23;;
7142;SDS011;3613;48.902;9.204;2023-12-20T05:38:30;2.77;;;2.23;;
7142;SDS011;3613;48.902;9.204;2023-12-20T05:40:56;3.53;;;2.50;;
7142;SDS011;3613;48.902;9.204;2023-12-20T05:43:22;4.17;;;2.73;;
7142;SDS011;3613;48.902;9.204;2023-12-20T05:45:47;2.83;;;2.63;;
7142;SDS011;3613;48.902;9.204;2023-12-20T05:48:13;4.17;;;2.67;;
7142;SDS011;3613;48.902;9.204;2023-12-20T05:50:41;3.10;;;2.80;;
7142;SDS011;3613;48.902;9.204;2023-12-20T05:53:07;5.10;;;3.10;;
7142;SDS011;3613;48.902;9.204;2023-12-20T05:55:33;5.40;;;3.33;;
7142;SDS011;3613;48.902;9.204;2023-12-20T05:58:00;4.87;;;3.57;;
7142;SDS011;3613;48.902;9.204;2023-12-20T06:00:26;3.83;;;3.17;;
7142;SDS011;3613;48.902;9.204;2023-12-20T06:02:51;4.13;;;3.13;;
7142;SDS011;3613;48.902;9.204;2023-12-20T06:05:19;5.43;;;3.60;;
7142;SDS011;3613;48.902;9.204;2023-12-20T06:07:47;5.43;;;3.43;;
7142;SDS011;3613;48.902;9.204;2023-12-20T06:10:15;4.80;;;3.37;;
7142;SDS011;3613;48.902;9.204;2023-12-20T06:12:41;4.00;;;2.80;;
7142;SDS011;3613;48.902;9.204;2023-12-20T06:15:07;3.73;;;3.27;;
7142;SDS011;3613;48.902;9.204;2023-12-20T06:17:33;4.50;;;3.47;;
7142;SDS011;3613;48.902;9.204;2023-12-20T06:19:59;4.83;;;3.37;;
7142;SDS011;3613;48.902;9.204;2023-12-20T06:22:25;3.80;;;2.87;;
7142;SDS011;3613;48.902;9.204;2023-12-20T06:24:53;5.27;;;2.87;;
7142;SDS011;3613;48.902;9.204;2023-12-20T06:27:19;3.53;;;3.13;;
7142;SDS011;3613;48.902;9.204;2023-12-20T06:29:45;4.73;;;3.20;;
7142;SDS011;3613;48.902;9.204;2023-12-20T06:32:10;5.50;;;3.67;;
7142;SDS011;3613;48.902;9.204;2023-12-20T06:34:36;4.50;;;3.27;;
7142;SDS011;3613;48.902;9.204;2023-12-20T06:37:03;5.57;;;3.70;;
7142;SDS011;3613;48.902;9.204;2023-12-20T06:39:32;5.40;;;3.50;;
7142;SDS011;3613;48.902;9.204;2023-12-20T06:41:59;5.40;;;3.90;;
7142;SDS011;3613;48.902;9.204;2023-12-20T06:44:25;5.83;;;3.97;;
7142;SDS011;3613;48.902;9.204;2023-12-20T06:46:52;6.07;;;4.17;;
7142;SDS011;3613;48.902;9.204;2023-12-20T06:49:18;5.03;;;4.10;;
7142;SDS011;3613;48.902;9.204;2023-12-20T06:51:44;5.47;;;4.17;;
7142;SDS011;3613;48.902;9.204;2023-12-20T06:54:09;6.60;;;4.53;;
7142;SDS011;3613;48.902;9.204;2023-12-20T06:56:37;6.37;;;4.57;;
7142;SDS011;3613;48.902;9.204;2023-12-20T06:59:06;6.57;;;4.10;;
7142;SDS011;3613;48.902;9.204;2023-12-20T07:01:34;6.87;;;4.77;;
7142;SDS011;3613;48.902;9.204;2023-12-20T07:03:59;7.37;;;4.50;;
7142;SDS011;3613;48.902;9.204;2023-12-20T07:06:25;9.83;;;4.80;;
7142;SDS011;3613;48.902;9.204;2023-12-20T07:08:52;7.17;;;4.97;;
7142;SDS011;3613;48.902;9.204;2023-12-20T07:11:18;10.63;;;5.33;;
7142;SDS011;3613;48.902;9.204;2023-12-20T07:13:44;8.27;;;6.37;;
7142;SDS011;3613;48.902;9.204;2023-12-20T07:16:09;8.47;;;5.60;;
7142;SDS011;3613;48.902;9.204;2023-12-20T07:18:35;7.93;;;5.63;;
7142;SDS011;3613;48.902;9.204;2023-12-20T07:21:05;8.57;;;6.50;;
7142;SDS011;3613;48.902;9.204;2023-12-20T07:23:32;9.33;;;6.40;;
7142;SDS011;3613;48.902;9.204;2023-12-20T07:25:58;10.70;;;6.53;;
7142;SDS011;3613;48.902;9.204;2023-12-20T07:28:24;11.20;;;6.63;;
7142;SDS011;3613;48.902;9.204;2023-12-20T07:30:50;9.77;;;6.80;;
7142;SDS011;3613;48.902;9.204;2023-12-20T07:33:17;10.90;;;6.37;;
7142;SDS011;3613;48.902;9.204;2023-12-20T07:35:43;9.53;;;6.47;;
7142;SDS011;3613;48.902;9.204;2023-12-20T07:38:10;9.67;;;7.07;;
7142;SDS011;3613;48.902;9.204;2023-12-20T07:40:37;8.53;;;6.07;;
7142;SDS011;3613;48.902;9.204;2023-12-20T07:43:03;12.20;;;7.00;;
7142;SDS011;3613;48.902;9.204;2023-12-20T07:45:29;9.53;;;6.73;;
7142;SDS011;3613;48.902;9.204;2023-12-20T07:47:55;10.40;;;6.90;;
7142;SDS011;3613;48.902;9.204;2023-12-20T07:50:20;11.33;;;8.00;;
7142;SDS011;3613;48.902;9.204;2023-12-20T07:52:46;9.23;;;6.53;;
7142;SDS011;3613;48.902;9.204;2023-12-20T07:55:11;7.73;;;5.73;;
7142;SDS011;3613;48.902;9.204;2023-12-20T07:57:37;6.03;;;5.07;;
7142;SDS011;3613;48.902;9.204;2023-12-20T08:00:03;7.63;;;5.83;;
7142;SDS011;3613;48.902;9.204;2023-12-20T08:02:34;8.53;;;5.80;;
7142;SDS011;3613;48.902;9.204;2023-12-20T08:05:01;8.40;;;6.00;;
7142;SDS011;3613;48.902;9.204;2023-12-20T08:07:29;8.40;;;6.53;;
7142;SDS011;3613;48.902;9.204;2023-12-20T08:09:55;8.10;;;5.50;;
7142;SDS011;3613;48.902;9.204;2023-12-20T08:12:21;8.50;;;6.40;;
7142;SDS011;3613;48.902;9.204;2023-12-20T08:14:52;8.00;;;5.20;;
7142;SDS011;3613;48.902;9.204;2023-12-20T08:17:18;7.97;;;6.13;;
7142;SDS011;3613;48.902;9.204;2023-12-20T08:19:44;8.33;;;6.20;;
7142;SDS011;3613;48.902;9.204;2023-12-20T08:22:10;6.97;;;5.10;;
7142;SDS011;3613;48.902;9.204;2023-12-20T08:24:36;7.97;;;5.17;;
7142;SDS011;3613;48.902;9.204;2023-12-20T08:27:02;8.13;;;5.60;;
7142;SDS011;3613;48.902;9.204;2023-12-20T08:29:28;9.67;;;5.40;;
7142;SDS011;3613;48.902;9.204;2023-12-20T08:31:55;11.70;;;5.60;;
7142;SDS011;3613;48.902;9.204;2023-12-20T08:34:21;9.00;;;5.63;;
7142;SDS011;3613;48.902;9.204;2023-12-20T08:36:46;8.60;;;5.57;;
7142;SDS011;3613;48.902;9.204;2023-12-20T08:39:12;9.43;;;5.70;;
7142;SDS011;3613;48.902;9.204;2023-12-20T08:41:40;7.60;;;5.27;;
7142;SDS011;3613;48.902;9.204;2023-12-20T08:44:06;9.60;;;6.87;;
7142;SDS011;3613;48.902;9.204;2023-12-20T08:46:31;7.77;;;6.47;;
7142;SDS011;3613;48.902;9.204;2023-12-20T08:49:00;10.90;;;6.53;;
7142;SDS011;3613;48.902;9.204;2023-12-20T08:51:26;9.30;;;5.80;;
7142;SDS011;3613;48.902;9.204;2023-12-20T08:53:54;7.97;;;5.90;;
7142;SDS011;3613;48.902;9.204;2023-12-20T08:56:20;11.10;;;5.83;;
7142;SDS011;3613;48.902;9.204;2023-12-20T08:58:46;9.43;;;5.73;;
7142;SDS011;3613;48.902;9.204;2023-12-20T09:01:12;8.37;;;5.30;;
7142;SDS011;3613;48.902;9.204;2023-12-20T09:03:40;7.60;;;5.40;;
7142;SDS011;3613;48.902;9.204;2023-12-20T09:06:08;6.93;;;4.83;;
7142;SDS011;3613;48.902;9.204;2023-12-20T09:08:34;9.17;;;6.10;;
7142;SDS011;3613;48.902;9.204;2023-12-20T09:10:59;7.93;;;5.60;;
7142;SDS011;3613;48.902;9.204;2023-12-20T09:13:28;9.13;;;5.40;;
7142;SDS011;3613;48.902;9.204;2023-12-20T09:15:58;11.67;;;6.30;;
7142;SDS011;3613;48.902;9.204;2023-12-20T09:18:24;9.30;;;6.23;;
7142;SDS011;3613;48.902;9.204;2023-12-20T09:20:50;9.07;;;5.57;;
7142;SDS011;3613;48.902;9.204;2023-12-20T09:23:15;10.50;;;6.80;;
7142;SDS011;3613;48.902;9.204;2023-12-20T09:25:42;12.73;;;6.40;;
7142;SDS011;3613;48.902;9.204;2023-12-20T09:28:10;10.83;;;5.83;;
7142;SDS011;3613;48.902;9.204;2023-12-20T09:30:36;9.73;;;5.67;;
7142;SDS011;3613;48.902;9.204;2023-12-20T09:33:04;8.70;;;5.07;;
7142;SDS011;3613;48.902;9.204;2023-12-20T09:35:31;9.60;;;5.63;;
7142;SDS011;3613;48.902;9.204;2023-12-20T09:37:57;9.53;;;5.47;;
7142;SDS011;3613;48.902;9.204;2023-12-20T09:40:25;8.37;;;5.10;;
7142;SDS011;3613;48.902;9.204;2023-12-20T09:42:56;5.80;;;4.57;;
7142;SDS011;3613;48.902;9.204;2023-12-20T09:45:23;7.10;;;4.30;;
7142;SDS011;3613;48.902;9.204;2023-12-20T09:47:53;8.80;;;3.90;;
7142;SDS011;3613;48.902;9.204;2023-12-20T09:50:22;8.83;;;3.63;;
7142;SDS011;3613;48.902;9.204;2023-12-20T09:52:49;11.97;;;3.83;;
7142;SDS011;3613;48.902;9.204;2023-12-20T09:55:17;5.90;;;3.40;;
7142;SDS011;3613;48.902;9.204;2023-12-20T09:57:44;5.27;;;3.20;;
7142;SDS011;3613;48.902;9.204;2023-12-20T10:00:14;5.10;;;2.70;;
7142;SDS011;3613;48.902;9.204;2023-12-20T10:02:59;5.67;;;2.73;;
7142;SDS011;3613;48.902;9.204;2023-12-20T10:05:31;4.03;;;2.40;;
7142;SDS011;3613;48.902;9.204;2023-12-20T10:07:58;2.50;;;1.90;;
7142;SDS011;3613;48.902;9.204;2023-12-20T10:10:24;3.20;;;2.00;;
7142;SDS011;3613;48.902;9.204;2023-12-20T10:15:33;5.10;;;2.13;;
7142;SDS011;3613;48.902;9.204;2023-12-20T10:18:00;4.93;;;2.00;;
7142;SDS011;3613;48.902;9.204;2023-12-20T10:20:29;4.73;;;2.27;;
7142;SDS011;3613;48.902;9.204;2023-12-20T10:22:55;5.70;;;2.00;;
7142;SDS011;3613;48.902;9.204;2023-12-20T10:25:26;3.80;;;1.90;;
7142;SDS011;3613;48.902;9.204;2023-12-20T10:28:08;2.40;;;1.80;;
7142;SDS011;3613;48.902;9.204;2023-12-20T10:30:44;4.00;;;1.80;;
7142;SDS011;3613;48.902;9.204;2023-12-20T10:33:09;4.30;;;2.30;;
7142;SDS011;3613;48.902;9.204;2023-12-20T10:35:36;3.57;;;1.90;;
7142;SDS011;3613;48.902;9.204;2023-12-20T10:38:06;5.67;;;1.50;;
7142;SDS011;3613;48.902;9.204;2023-12-20T10:40:34;4.30;;;2.17;;
7142;SDS011;3613;48.902;9.204;2023-12-20T10:43:02;3.33;;;2.00;;
7142;SDS011;3613;48.902;9.204;2023-12-20T10:45:29;6.17;;;2.20;;
7142;SDS011;3613;48.902;9.204;2023-12-20T10:48:01;3.47;;;1.70;;
7142;SDS011;3613;48.902;9.204;2023-12-20T10:50:30;4.17;;;1.90;;
7142;SDS011;3613;48.902;9.204;2023-12-20T10:52:56;4.50;;;2.10;;
7142;SDS011;3613;48.902;9.204;2023-12-20T10:55:23;5.00;;;2.00;;
7142;SDS011;3613;48.902;9.204;2023-12-20T10:57:51;3.60;;;1.70;;
7142;SDS011;3613;48.902;9.204;2023-12-20T11:00:18;3.33;;;1.73;;
7142;SDS011;3613;48.902;9.204;2023-12-20T11:02:44;3.03;;;2.00;;
7142;SDS011;3613;48.902;9.204;2023-12-20T11:05:25;2.37;;;1.60;;
7142;SDS011;3613;48.902;9.204;2023-12-20T11:08:11;3.13;;;1.70;;
7142;SDS011;3613;48.902;9.204;2023-12-20T11:10:49;2.70;;;1.60;;
7142;SDS011;3613;48.902;9.204;2023-12-20T11:13:45;4.90;;;2.37;;
7142;SDS011;3613;48.902;9.204;2023-12-20T11:16:21;3.27;;;1.73;;
7142;SDS011;3613;48.902;9.204;2023-12-20T11:18:47;5.10;;;1.73;;
7142;SDS011;3613;48.902;9.204;2023-12-20T11:21:15;4.33;;;1.63;;
7142;SDS011;3613;48.902;9.204;2023-12-20T11:23:41;2.77;;;1.90;;
7142;SDS011;3613;48.902;9.204;2023-12-20T11:26:10;3.20;;;2.17;;
7142;SDS011;3613;48.902;9.204;2023-12-20T11:28:37;5.53;;;2.20;;
7142;SDS011;3613;48.902;9.204;2023-12-20T11:31:04;6.80;;;2.87;;
7142;SDS011;3613;48.902;9.204;2023-12-20T11:33:36;4.43;;;2.37;;
7142;SDS011;3613;48.902;9.204;2023-12-20T11:36:02;9.13;;;2.00;;
7142;SDS011;3613;48.902;9.204;2023-12-20T11:38:38;4.63;;;2.50;;
7142;SDS011;3613;48.902;9.204;2023-12-20T11:41:14;2.47;;;1.80;;
7142;SDS011;3613;48.902;9.204;2023-12-20T11:43:43;4.97;;;1.90;;
7142;SDS011;3613;48.902;9.204;2023-12-20T11:46:09;4.37;;;1.67;;
7142;SDS011;3613;48.902;9.204;2023-12-20T11:48:36;3.60;;;2.80;;
7142;SDS011;3613;48.902;9.204;2023-12-20T11:51:08;3.07;;;1.90;;
7142;SDS011;3613;48.902;9.204;2023-12-20T11:53:34;3.87;;;2.30;;
7142;SDS011;3613;48.902;9.204;2023-12-20T11:56:01;5.17;;;2.63;;
7142;SDS011;3613;48.902;9.204;2023-12-20T11:58:30;4.73;;;2.40;;
7142;SDS011;3613;48.902;9.204;2023-12-20T12:00:56;2.40;;;2.00;;
7142;SDS011;3613;48.902;9.204;2023-12-20T12:03:22;5.57;;;2.87;;
7142;SDS011;3613;48.902;9.204;2023-12-20T12:05:50;5.70;;;2.30;;
7142;SDS011;3613;48.902;9.204;2023-12-20T12:08:19;4.07;;;2.57;;
7142;SDS011;3613;48.902;9.204;2023-12-20T12:10:45;3.93;;;2.50;;
7142;SDS011;3613;48.902;9.204;2023-12-20T12:13:10;6.60;;;1.97;;
7142;SDS011;3613;48.902;9.204;2023-12-20T12:15:39;6.90;;;2.90;;
7142;SDS011;3613;48.902;9.204;2023-12-20T12:18:04;4.00;;;2.17;;
7142;SDS011;3613;48.902;9.204;2023-12-20T12:20:30;3.00;;;1.93;;
7142;SDS011;3613;48.902;9.204;2023-12-20T12:23:05;5.27;;;2.60;;
7142;SDS011;3613;48.902;9.204;2023-12-20T12:25:34;5.40;;;2.37;;
7142;SDS011;3613;48.902;9.204;2023-12-20T12:28:04;2.87;;;2.37;;
7142;SDS011;3613;48.902;9.204;2023-12-20T12:30:33;3.67;;;2.60;;
7142;SDS011;3613;48.902;9.204;2023-12-20T12:33:01;6.45;;;2.70;;
7142;SDS011;3613;48.902;9.204;2023-12-20T12:35:28;6.70;;;2.67;;
7142;SDS011;3613;48.902;9.204;2023-12-20T12:37:58;6.10;;;2.00;;
7142;SDS011;3613;48.902;9.204;2023-12-20T12:40:25;10.83;;;2.93;;
7142;SDS011;3613;48.902;9.204;2023-12-20T12:42:51;7.70;;;3.07;;
7142;SDS011;3613;48.902;9.204;2023-12-20T12:45:16;4.77;;;2.13;;
7142;SDS011;3613;48.902;9.204;2023-12-20T12:47:42;4.77;;;2.10;;
7142;SDS011;3613;48.902;9.204;2023-12-20T12:50:08;4.60;;;2.40;;
7142;SDS011;3613;48.902;9.204;2023-12-20T12:52:33;2.57;;;2.00;;
7142;SDS011;3613;48.902;9.204;2023-12-20T12:55:02;4.03;;;2.10;;
7142;SDS011;3613;48.902;9.204;2023-12-20T12:57:31;2.97;;;1.83;;
7142;SDS011;3613;48.902;9.204;2023-12-20T12:59:59;5.70;;;2.00;;
7142;SDS011;3613;48.902;9.204;2023-12-20T13:02:25;7.63;;;2.03;;
7142;SDS011;3613;48.902;9.204;2023-12-20T13:04:53;5.23;;;2.37;;
7142;SDS011;3613;48.902;9.204;2023-12-20T13:07:19;4.70;;;2.13;;
7142;SDS011;3613;48.902;9.204;2023-12-20T13:09:44;4.53;;;2.30;;
7142;SDS011;3613;48.902;9.204;2023-12-20T13:12:10;3.23;;;1.93;;
7142;SDS011;3613;48.902;9.204;2023-12-20T13:14:35;4.03;;;2.10;;
7142;SDS011;3613;48.902;9.204;2023-12-20T13:17:04;3.30;;;1.70;;
7142;SDS011;3613;48.902;9.204;2023-12-20T13:19:30;7.20;;;2.13;;
7142;SDS011;3613;48.902;9.204;2023-12-20T13:21:59;3.13;;;1.80;;
7142;SDS011;3613;48.902;9.204;2023-12-20T13:24:24;3.27;;;1.80;;
7142;SDS011;3613;48.902;9.204;2023-12-20T13:26:50;3.70;;;1.90;;
7142;SDS011;3613;48.902;9.204;2023-12-20T13:29:19;3.67;;;1.90;;
7142;SDS011;3613;48.902;9.204;2023-12-20T13:31:46;5.33;;;2.00;;
7142;SDS011;3613;48.902;9.204;2023-12-20T13:34:12;5.07;;;2.20;;
7142;SDS011;3613;48.902;9.204;2023-12-20T13:36:38;3.57;;;1.90;;
7142;SDS011;3613;48.902;9.204;2023-12-20T13:39:03;4.90;;;2.30;;
7142;SDS011;3613;48.902;9.204;2023-12-20T13:41:34;7.10;;;2.40;;
7142;SDS011;3613;48.902;9.204;2023-12-20T13:43:59;4.63;;;1.73;;
7142;SDS011;3613;48.902;9.204;2023-12-20T13:46:28;2.77;;;1.90;;
7142;SDS011;3613;48.902;9.204;2023-12-20T13:48:54;5.23;;;1.87;;
7142;SDS011;3613;48.902;9.204;2023-12-20T13:51:20;3.07;;;2.07;;
7142;SDS011;3613;48.902;9.204;2023-12-20T13:53:46;8.77;;;2.47;;
7142;SDS011;3613;48.902;9.204;2023-12-20T13:56:13;4.60;;;2.10;;
7142;SDS011;3613;48.902;9.204;2023-12-20T13:58:39;3.10;;;2.50;;
7142;SDS011;3613;48.902;9.204;2023-12-20T14:01:06;3.90;;;2.10;;
7142;SDS011;3613;48.902;9.204;2023-12-20T14:03:37;5.60;;;2.57;;
7142;SDS011;3613;48.902;9.204;2023-12-20T14:06:02;3.93;;;1.90;;
7142;SDS011;3613;48.902;9.204;2023-12-20T14:08:28;4.90;;;2.30;;
7142;SDS011;3613;48.902;9.204;2023-12-20T14:10:54;5.83;;;2.57;;
7142;SDS011;3613;48.902;9.204;2023-12-20T14:13:24;4.40;;;2.00;;
7142;SDS011;3613;48.902;9.204;2023-12-20T14:15:50;4.57;;;2.63;;
7142;SDS011;3613;48.902;9.204;2023-12-20T14:18:15;3.83;;;2.17;;
7142;SDS011;3613;48.902;9.204;2023-12-20T14:20:42;4.57;;;2.63;;
7142;SDS011;3613;48.902;9.204;2023-12-20T14:23:07;2.40;;;2.00;;
7142;SDS011;3613;48.902;9.204;2023-12-20T14:25:40;3.20;;;1.90;;
7142;SDS011;3613;48.902;9.204;2023-12-20T14:28:06;4.83;;;1.97;;
7142;SDS011;3613;48.902;9.204;2023-12-20T14:30:32;3.33;;;1.97;;
7142;SDS011;3613;48.902;9.204;2023-12-20T14:32:58;4.13;;;2.80;;
7142;SDS011;3613;48.902;9.204;2023-12-20T14:35:26;6.23;;;2.33;;
7142;SDS011;3613;48.902;9.204;2023-12-20T14:37:52;4.53;;;2.63;;
7142;SDS011;3613;48.902;9.204;2023-12-20T14:40:20;5.43;;;2.70;;
7142;SDS011;3613;48.902;9.204;2023-12-20T14:42:46;6.80;;;3.17;;
7142;SDS011;3613;48.902;9.204;2023-12-20T14:45:15;5.43;;;2.57;;
7142;SDS011;3613;48.902;9.204;2023-12-20T14:47:44;5.03;;;2.57;;
7142;SDS011;3613;48.902;9.204;2023-12-20T14:50:09;6.50;;;2.60;;
7142;SDS011;3613;48.902;9.204;2023-12-20T14:52:42;5.43;;;3.13;;
7142;SDS011;3613;48.902;9.204;2023-12-20T14:55:08;6.30;;;2.97;;
7142;SDS011;3613;48.902;9.204;2023-12-20T14:57:34;7.23;;;2.73;;
7142;SDS011;3613;48.902;9.204;2023-12-20T14:59:59;4.07;;;2.37;;
7142;SDS011;3613;48.902;9.204;2023-12-20T15:02:25;4.83;;;2.43;;
7142;SDS011;3613;48.902;9.204;2023-12-20T15:04:53;4.40;;;2.47;;
7142;SDS011;3613;48.902;9.204;2023-12-20T15:07:21;6.20;;;2.93;;
7142;SDS011;3613;48.902;9.204;2023-12-20T15:09:46;6.47;;;3.03;;
7142;SDS011;3613;48.902;9.204;2023-12-20T15:12:14;6.83;;;2.77;;